createdAt,value
2018-06-03T00:00:53.955Z,18.10
2018-06-03T00:03:20.229Z,14.77
2018-06-03T00:05:46.471Z,13.40
2018-06-03T00:08:12.730Z,19.23
2018-06-03T00:10:39.003Z,13.30
2018-06-03T00:13:05.236Z,19.53
2018-06-03T00:15:31.487Z,16.97
2018-06-03T00:17:57.714Z,14.97
2018-06-03T00:20:29.878Z,16.97
2018-06-03T00:22:56.146Z,13.73
2018-06-03T00:25:22.405Z,19.33
2018-06-03T00:27:48.670Z,22.17
2018-06-03T00:30:14.906Z,22.10
2018-06-03T00:32:41.143Z,25.90
2018-06-03T00:35:07.412Z,21.47
2018-06-03T00:37:33.643Z,21.77
2018-06-03T00:39:59.911Z,18.53
2018-06-03T00:42:26.151Z,20.53
2018-06-03T00:44:52.410Z,22.23
2018-06-03T00:47:18.647Z,24.47
2018-06-03T00:49:44.907Z,18.80
2018-06-03T00:52:11.163Z,21.23
2018-06-03T00:54:37.404Z,23.83
2018-06-03T00:57:08.554Z,24.10
2018-06-03T00:59:34.782Z,26.17
2018-06-03T01:02:01.067Z,23.13
2018-06-03T01:04:27.329Z,23.63
2018-06-03T01:06:53.581Z,28.47
2018-06-03T01:09:19.846Z,25.80
2018-06-03T01:11:46.066Z,26.57
2018-06-03T01:14:12.324Z,25.53
2018-06-03T01:16:38.562Z,25.00
2018-06-03T01:19:04.807Z,23.43
2018-06-03T01:21:31.080Z,27.43
2018-06-03T01:23:57.347Z,23.80
2018-06-03T01:26:23.594Z,24.60
2018-06-03T01:28:49.847Z,26.50
2018-06-03T01:31:16.076Z,26.17
2018-06-03T01:33:42.378Z,24.73
2018-06-03T01:36:08.626Z,26.43
2018-06-03T01:38:34.863Z,25.47
2018-06-03T01:41:01.116Z,26.50
2018-06-03T01:43:27.362Z,31.23
2018-06-03T01:45:53.679Z,26.57
2018-06-03T01:48:19.934Z,28.23
2018-06-03T01:50:46.175Z,29.27
2018-06-03T01:53:12.442Z,26.83
2018-06-03T01:55:38.710Z,28.80
2018-06-03T01:58:04.987Z,25.33
2018-06-03T02:00:31.270Z,31.67
2018-06-03T02:02:57.527Z,22.63
2018-06-03T02:05:23.755Z,29.10
2018-06-03T02:07:50.052Z,35.83
2018-06-03T02:10:16.279Z,28.63
2018-06-03T02:12:42.522Z,25.57
2018-06-03T02:15:08.794Z,25.13
2018-06-03T02:17:35.027Z,30.20
2018-06-03T02:20:01.290Z,27.87
2018-06-03T02:22:27.582Z,30.40
2018-06-03T02:24:53.815Z,26.60
2018-06-03T02:27:20.041Z,26.20
2018-06-03T02:29:46.311Z,25.57
2018-06-03T02:32:12.555Z,25.27
2018-06-03T02:34:38.803Z,31.87
2018-06-03T02:37:05.070Z,33.13
2018-06-03T02:39:31.289Z,28.53
2018-06-03T02:41:57.539Z,27.13
2018-06-03T02:44:23.802Z,26.87
2018-06-03T02:46:50.083Z,33.43
2018-06-03T02:49:16.335Z,29.47
2018-06-03T02:51:42.635Z,28.60
2018-06-03T02:54:08.923Z,33.03
2018-06-03T02:56:35.170Z,32.77
2018-06-03T02:59:01.453Z,34.60
2018-06-03T03:01:27.688Z,30.67
2018-06-03T03:03:53.939Z,32.37
2018-06-03T03:06:20.199Z,27.10
2018-06-03T03:08:46.445Z,32.33
2018-06-03T03:11:12.675Z,36.90
2018-06-03T03:13:38.963Z,32.37
2018-06-03T03:16:05.201Z,38.03
2018-06-03T03:18:31.436Z,32.83
2018-06-03T03:20:57.731Z,34.10
2018-06-03T03:23:23.975Z,33.90
2018-06-03T03:25:50.214Z,38.33
2018-06-03T03:28:16.502Z,33.30
2018-06-03T03:30:42.735Z,31.87
2018-06-03T03:33:08.993Z,32.43
2018-06-03T03:35:35.256Z,35.70
2018-06-03T03:38:01.496Z,36.33
2018-06-03T03:40:27.746Z,33.80
2018-06-03T03:42:54.026Z,37.03
2018-06-03T03:45:20.254Z,31.17
2018-06-03T03:47:46.480Z,32.83
2018-06-03T03:50:12.767Z,36.47
2018-06-03T03:52:39.014Z,37.67
2018-06-03T03:55:05.258Z,34.03
2018-06-03T03:57:31.524Z,37.00
2018-06-03T03:59:57.755Z,41.90
2018-06-03T04:02:23.987Z,39.77
2018-06-03T04:04:50.259Z,36.73
2018-06-03T04:07:16.511Z,39.43
2018-06-03T04:09:42.751Z,36.97
2018-06-03T04:12:09.020Z,36.57
2018-06-03T04:14:35.263Z,36.57
2018-06-03T04:17:01.499Z,31.60
2018-06-03T04:19:27.760Z,36.47
2018-06-03T04:21:53.999Z,37.27
2018-06-03T04:24:20.230Z,36.57
2018-06-03T04:26:46.495Z,36.20
2018-06-03T04:29:12.733Z,35.53
2018-06-03T04:31:38.972Z,41.43
2018-06-03T04:34:05.272Z,39.73
2018-06-03T04:36:31.486Z,43.13
2018-06-03T04:38:57.715Z,42.30
2018-06-03T04:41:24.034Z,40.87
2018-06-03T04:43:50.289Z,41.30
2018-06-03T04:46:16.549Z,41.40
2018-06-03T04:48:42.870Z,41.00
2018-06-03T04:51:09.102Z,42.53
2018-06-03T04:53:35.399Z,44.47
2018-06-03T04:56:01.719Z,42.70
2018-06-03T04:58:27.974Z,37.70
2018-06-03T05:00:54.219Z,38.63
2018-06-03T05:03:20.538Z,35.00
2018-06-03T05:05:46.853Z,32.83
2018-06-03T05:08:13.126Z,37.63
2018-06-03T05:10:39.399Z,35.87
2018-06-03T05:13:05.642Z,35.73
2018-06-03T05:15:31.869Z,37.80
2018-06-03T05:17:58.926Z,37.87
2018-06-03T05:20:25.236Z,40.00
2018-06-03T05:22:51.499Z,36.77
2018-06-03T05:25:17.881Z,37.63
2018-06-03T05:27:44.130Z,38.40
2018-06-03T05:30:10.383Z,38.47
2018-06-03T05:32:36.660Z,36.90
2018-06-03T05:35:02.944Z,35.57
2018-06-03T05:37:29.271Z,35.17
2018-06-03T05:39:55.554Z,37.97
2018-06-03T05:42:21.834Z,37.97
2018-06-03T05:44:48.080Z,38.37
2018-06-03T05:47:14.375Z,36.77
2018-06-03T05:49:40.708Z,36.17
2018-06-03T05:52:06.966Z,35.63
2018-06-03T05:54:33.302Z,37.73
2018-06-03T05:56:59.590Z,41.50
2018-06-03T05:59:25.915Z,35.23
2018-06-03T06:01:52.214Z,37.10
2018-06-03T06:04:18.534Z,41.03
2018-06-03T06:06:44.821Z,36.60
2018-06-03T06:09:11.258Z,42.90
2018-06-03T06:11:37.545Z,39.20
2018-06-03T06:14:03.834Z,39.87
2018-06-03T06:16:32.104Z,37.50
2018-06-03T06:18:58.584Z,38.63
2018-06-03T06:21:24.836Z,37.63
2018-06-03T06:23:51.216Z,40.03
2018-06-03T06:26:17.669Z,43.87
2018-06-03T06:28:43.933Z,43.57
2018-06-03T06:31:10.305Z,47.20
2018-06-03T06:33:36.608Z,42.97
2018-06-03T06:36:02.851Z,46.63
2018-06-03T06:38:29.139Z,47.83
2018-06-03T06:40:55.416Z,51.73
2018-06-03T06:43:21.703Z,46.00
2018-06-03T06:45:48.071Z,46.67
2018-06-03T06:48:14.340Z,46.90
2018-06-03T06:50:40.786Z,50.33
2018-06-03T06:53:08.026Z,43.20
2018-06-03T06:55:34.290Z,50.13
2018-06-03T06:58:00.630Z,44.43
2018-06-03T07:00:27.152Z,48.23
2018-06-03T07:02:53.410Z,40.50
2018-06-03T07:05:59.848Z,41.63
2018-06-03T07:08:27.483Z,44.43
2018-06-03T07:10:55.073Z,42.17
2018-06-03T07:13:22.626Z,43.77
2018-06-03T07:15:50.260Z,43.77
2018-06-03T07:18:17.827Z,35.93
2018-06-03T07:20:45.382Z,38.43
2018-06-03T07:23:12.933Z,35.33
2018-06-03T07:25:40.503Z,34.70
2018-06-03T07:28:08.066Z,36.10
2018-06-03T07:30:35.591Z,35.17
2018-06-03T07:33:03.132Z,34.10
2018-06-03T07:35:30.675Z,34.17
2018-06-03T07:37:58.195Z,37.27
2018-06-03T07:40:25.709Z,39.07
2018-06-03T07:42:53.331Z,35.83
2018-06-03T07:45:20.845Z,33.83
2018-06-03T07:47:48.415Z,31.27
2018-06-03T07:50:16.174Z,33.50
2018-06-03T07:52:43.959Z,32.67
2018-06-03T07:55:11.648Z,36.70
2018-06-03T07:57:39.398Z,34.33
2018-06-03T08:00:07.074Z,33.87
2018-06-03T08:02:34.650Z,33.43
2018-06-03T08:05:02.243Z,31.30
2018-06-03T08:07:29.778Z,34.93
2018-06-03T08:09:57.287Z,31.30
2018-06-03T08:12:25.493Z,26.10
2018-06-03T08:14:53.325Z,28.33
2018-06-03T08:17:21.155Z,25.37
2018-06-03T08:19:48.930Z,30.07
2018-06-03T08:22:16.685Z,30.37
2018-06-03T08:24:44.380Z,28.63
2018-06-03T08:27:12.046Z,31.30
2018-06-03T08:29:39.618Z,32.23
2018-06-03T08:32:07.202Z,30.20
2018-06-03T08:34:34.751Z,27.80
2018-06-03T08:37:03.052Z,25.57
2018-06-03T08:39:31.566Z,24.57
2018-06-03T08:41:59.239Z,24.83
2018-06-03T08:44:26.823Z,23.90
2018-06-03T08:46:54.534Z,21.47
2018-06-03T08:49:22.331Z,20.37
2018-06-03T08:51:49.907Z,24.00
2018-06-03T08:54:17.426Z,19.97
2018-06-03T08:56:46.336Z,21.93
2018-06-03T08:59:13.987Z,23.73
2018-06-03T09:01:41.671Z,26.17
2018-06-03T09:04:09.353Z,25.40
2018-06-03T09:06:37.058Z,27.03
2018-06-03T09:09:06.207Z,26.33
2018-06-03T09:11:33.863Z,27.30
2018-06-03T09:14:01.579Z,28.53
2018-06-03T09:16:29.255Z,22.70
2018-06-03T09:18:56.847Z,23.97
2018-06-03T09:21:24.407Z,24.27
2018-06-03T09:23:52.110Z,18.97
2018-06-03T09:26:19.787Z,18.33
2018-06-03T09:28:47.499Z,21.27
2018-06-03T09:31:15.257Z,18.63
2018-06-03T09:33:42.814Z,15.37
2018-06-03T09:36:10.343Z,15.17
2018-06-03T09:38:38.473Z,16.73
2018-06-03T09:41:06.339Z,16.67
2018-06-03T09:43:33.940Z,16.17
2018-06-03T09:46:01.533Z,15.80
2018-06-03T09:48:29.412Z,13.83
2018-06-03T09:50:57.136Z,13.07
2018-06-03T09:53:24.900Z,11.40
2018-06-03T09:55:52.894Z,11.33
2018-06-03T09:58:20.544Z,10.43
2018-06-03T10:00:48.537Z,10.40
2018-06-03T10:03:16.473Z,11.57
2018-06-03T10:05:44.278Z,11.27
2018-06-03T10:08:12.005Z,12.03
2018-06-03T10:10:39.714Z,12.80
2018-06-03T10:13:07.723Z,14.60
2018-06-03T10:15:35.274Z,12.33
2018-06-03T10:18:02.908Z,11.93
2018-06-03T10:20:30.499Z,11.27
2018-06-03T10:22:58.091Z,11.53
2018-06-03T10:25:25.736Z,11.63
2018-06-03T10:27:53.286Z,11.03
2018-06-03T10:30:20.959Z,12.93
2018-06-03T10:32:48.831Z,10.27
2018-06-03T10:35:16.431Z,11.40
2018-06-03T10:37:44.108Z,11.27
2018-06-03T10:40:11.829Z,10.00
2018-06-03T10:42:40.219Z,9.70
2018-06-03T10:45:07.826Z,9.97
2018-06-03T10:47:35.399Z,9.70
2018-06-03T10:50:03.049Z,12.77
2018-06-03T10:52:30.698Z,11.77
2018-06-03T10:54:58.468Z,10.57
2018-06-03T10:57:26.001Z,10.60
2018-06-03T10:59:53.608Z,11.10
2018-06-03T11:02:21.310Z,12.47
2018-06-03T11:04:49.099Z,11.43
2018-06-03T11:07:16.911Z,10.97
2018-06-03T11:09:44.594Z,11.17
2018-06-03T11:12:12.174Z,9.73
2018-06-03T11:14:39.975Z,8.90
2018-06-03T11:17:07.575Z,9.00
2018-06-03T11:19:35.115Z,8.57
2018-06-03T11:22:02.635Z,8.63
2018-06-03T11:24:30.168Z,12.37
2018-06-03T11:26:57.706Z,10.70
2018-06-03T11:29:25.280Z,11.47
2018-06-03T11:31:52.871Z,11.63
2018-06-03T11:34:20.420Z,12.47
2018-06-03T11:36:47.927Z,12.93
2018-06-03T11:39:15.483Z,12.30
2018-06-03T11:41:42.992Z,11.80
2018-06-03T11:44:10.532Z,13.87
2018-06-03T11:46:38.118Z,9.80
2018-06-03T11:49:05.651Z,9.17
2018-06-03T11:51:33.215Z,7.67
2018-06-03T11:54:00.804Z,7.00
2018-06-03T11:56:39.475Z,6.57
2018-06-03T11:59:11.239Z,8.63
2018-06-03T12:01:38.794Z,7.10
2018-06-03T12:04:06.371Z,8.40
2018-06-03T12:06:33.957Z,8.80
2018-06-03T12:09:01.482Z,10.40
2018-06-03T12:11:29.183Z,10.47
2018-06-03T12:13:56.744Z,12.13
2018-06-03T12:16:24.315Z,11.77
2018-06-03T12:18:51.897Z,10.70
2018-06-03T12:21:19.456Z,10.83
2018-06-03T12:23:46.984Z,9.57
2018-06-03T12:26:14.510Z,9.90
2018-06-03T12:28:42.143Z,9.30
2018-06-03T12:31:09.678Z,7.40
2018-06-03T12:33:37.198Z,7.70
2018-06-03T12:36:04.763Z,8.23
2018-06-03T12:38:32.307Z,7.53
2018-06-03T12:40:59.874Z,8.37
2018-06-03T12:43:27.426Z,8.53
2018-06-03T12:45:54.960Z,8.03
2018-06-03T12:48:22.511Z,7.93
2018-06-03T12:50:50.446Z,10.13
2018-06-03T12:53:17.999Z,11.37
2018-06-03T12:55:45.526Z,10.60
2018-06-03T12:58:13.075Z,8.93
2018-06-03T13:00:40.586Z,10.40
2018-06-03T13:03:08.400Z,9.63
2018-06-03T13:05:35.938Z,8.63
2018-06-03T13:08:03.687Z,8.63
2018-06-03T13:10:31.237Z,8.80
2018-06-03T13:12:58.762Z,7.93
2018-06-03T13:15:26.442Z,8.50
2018-06-03T13:17:53.943Z,7.33
2018-06-03T13:20:21.663Z,7.70
2018-06-03T13:22:49.210Z,8.93
2018-06-03T13:25:16.761Z,8.37
2018-06-03T13:27:44.345Z,7.70
2018-06-03T13:30:11.851Z,7.03
2018-06-03T13:32:39.354Z,7.53
2018-06-03T13:35:06.927Z,7.57
2018-06-03T13:37:34.484Z,7.00
2018-06-03T13:40:02.052Z,6.87
2018-06-03T13:42:29.631Z,7.57
2018-06-03T13:44:57.147Z,8.00
2018-06-03T13:47:24.646Z,6.33
2018-06-03T13:49:52.224Z,6.60
2018-06-03T13:52:19.753Z,6.17
2018-06-03T13:54:47.264Z,6.70
2018-06-03T13:57:14.830Z,14.43
2018-06-03T13:59:42.379Z,6.10
2018-06-03T14:02:09.891Z,7.57
2018-06-03T14:04:37.454Z,7.60
2018-06-03T14:07:04.965Z,6.63
2018-06-03T14:09:32.472Z,7.70
2018-06-03T14:12:06.741Z,6.80
2018-06-03T14:14:34.438Z,7.53
2018-06-03T14:17:01.972Z,7.30
2018-06-03T14:19:29.589Z,7.70
2018-06-03T14:21:57.193Z,6.83
2018-06-03T14:24:24.723Z,6.97
2018-06-03T14:26:52.290Z,7.20
2018-06-03T14:29:19.804Z,7.30
2018-06-03T14:31:47.319Z,6.90
2018-06-03T14:34:14.871Z,6.07
2018-06-03T14:36:42.563Z,6.63
2018-06-03T14:39:10.107Z,6.73
2018-06-03T14:41:37.692Z,6.17
2018-06-03T14:44:05.271Z,6.60
2018-06-03T14:46:32.791Z,6.23
2018-06-03T14:49:00.330Z,6.87
2018-06-03T14:51:27.867Z,6.63
2018-06-03T14:53:55.400Z,6.70
2018-06-03T14:56:22.964Z,6.60
2018-06-03T14:58:50.636Z,6.80
2018-06-03T15:01:18.211Z,7.50
2018-06-03T15:03:45.866Z,7.47
2018-06-03T15:06:13.504Z,6.70
2018-06-03T15:08:41.054Z,7.77
2018-06-03T15:11:08.590Z,6.90
2018-06-03T15:13:36.159Z,6.53
2018-06-03T15:16:03.691Z,7.30
2018-06-03T15:18:31.250Z,6.63
2018-06-03T15:20:58.832Z,6.43
2018-06-03T15:23:26.379Z,7.10
2018-06-03T15:25:53.961Z,6.60
2018-06-03T15:28:21.507Z,5.93
2018-06-03T15:30:49.047Z,6.20
2018-06-03T15:33:16.597Z,6.83
2018-06-03T15:35:44.144Z,5.90
2018-06-03T15:38:11.664Z,6.50
2018-06-03T15:40:39.247Z,6.00
2018-06-03T15:43:06.779Z,6.73
2018-06-03T15:45:34.319Z,9.20
2018-06-03T15:48:01.952Z,6.37
2018-06-03T15:50:29.475Z,13.63
2018-06-03T15:52:57.002Z,5.90
2018-06-03T15:55:24.568Z,5.83
2018-06-03T15:57:52.078Z,8.67
2018-06-03T16:00:19.619Z,6.70
2018-06-03T16:02:47.171Z,9.93
2018-06-03T16:05:14.722Z,5.40
2018-06-03T16:07:42.285Z,5.40
2018-06-03T16:10:09.865Z,6.27
2018-06-03T16:12:37.400Z,5.50
2018-06-03T16:15:04.995Z,5.77
2018-06-03T16:17:32.559Z,6.13
2018-06-03T16:20:00.103Z,7.87
2018-06-03T16:22:27.611Z,6.57
2018-06-03T16:24:55.164Z,4.70
2018-06-03T16:27:22.711Z,7.17
2018-06-03T16:29:50.280Z,5.47
2018-06-03T16:32:17.864Z,7.07
2018-06-03T16:34:45.390Z,6.90
2018-06-03T16:37:12.902Z,6.87
2018-06-03T16:39:40.438Z,5.50
2018-06-03T16:42:07.987Z,5.50
2018-06-03T16:44:35.547Z,5.30
2018-06-03T16:47:03.187Z,5.90
2018-06-03T16:49:30.706Z,5.23
2018-06-03T16:51:58.271Z,5.67
2018-06-03T16:54:25.862Z,5.50
2018-06-03T16:56:53.416Z,5.60
2018-06-03T16:59:20.959Z,5.13
2018-06-03T17:01:48.486Z,5.30
2018-06-03T17:04:16.028Z,6.00
2018-06-03T17:09:46.619Z,53.50
2018-06-03T17:12:14.500Z,11.47
2018-06-03T17:14:42.043Z,8.70
2018-06-03T17:17:09.775Z,9.40
2018-06-03T17:19:37.344Z,9.17
2018-06-03T17:22:04.884Z,7.10
2018-06-03T17:24:32.426Z,6.70
2018-06-03T17:26:59.967Z,6.10
2018-06-03T17:29:27.527Z,5.43
2018-06-03T17:31:55.112Z,7.17
2018-06-03T17:34:22.679Z,5.90
2018-06-03T17:36:50.215Z,6.23
2018-06-03T17:39:17.795Z,5.47
2018-06-03T17:41:45.356Z,7.03
2018-06-03T17:44:12.878Z,5.93
2018-06-03T17:46:40.444Z,5.93
2018-06-03T17:49:07.990Z,6.47
2018-06-03T17:51:35.535Z,7.37
2018-06-03T17:54:03.108Z,5.53
2018-06-03T17:56:30.632Z,7.70
2018-06-03T17:58:58.160Z,5.33
2018-06-03T18:01:25.755Z,6.33
2018-06-03T18:03:53.325Z,8.50
2018-06-03T18:06:20.865Z,5.73
2018-06-03T18:08:48.414Z,6.50
2018-06-03T18:11:16.271Z,7.87
2018-06-03T18:13:43.811Z,17.97
2018-06-03T18:16:11.378Z,30.97
2018-06-03T18:18:38.975Z,9.23
2018-06-03T18:21:06.519Z,7.73
2018-06-03T18:26:08.671Z,9.07
2018-06-03T18:28:36.226Z,6.83
2018-06-03T18:31:03.735Z,7.13
2018-06-03T18:33:31.254Z,6.73
2018-06-03T18:35:58.814Z,6.90
2018-06-03T18:38:26.326Z,6.57
2018-06-03T18:40:53.959Z,6.47
2018-06-03T18:43:21.520Z,6.27
2018-06-03T18:45:49.293Z,7.87
2018-06-03T18:48:16.837Z,6.60
2018-06-03T18:50:44.554Z,6.30
2018-06-03T18:53:12.063Z,6.77
2018-06-03T18:55:39.797Z,6.03
2018-06-03T18:58:07.438Z,6.10
2018-06-03T19:00:35.010Z,5.87
2018-06-03T19:03:02.767Z,7.07
2018-06-03T19:05:30.355Z,6.00
2018-06-03T19:07:58.010Z,6.53
2018-06-03T19:10:25.640Z,6.37
2018-06-03T19:12:53.206Z,6.50
2018-06-03T19:15:20.876Z,7.17
2018-06-03T19:17:48.475Z,5.73
2018-06-03T19:20:16.143Z,6.00
2018-06-03T19:22:43.768Z,6.60
2018-06-03T19:25:11.306Z,5.90
2018-06-03T19:27:39.088Z,6.30
2018-06-03T19:30:06.571Z,5.93
2018-06-03T19:32:34.168Z,5.70
2018-06-03T19:35:01.816Z,6.93
2018-06-03T19:37:29.342Z,7.23
2018-06-03T19:40:03.399Z,6.73
2018-06-03T19:42:31.095Z,6.77
2018-06-03T19:44:58.631Z,6.33
2018-06-03T19:47:26.213Z,6.97
2018-06-03T19:49:53.899Z,6.63
2018-06-03T19:52:21.496Z,6.53
2018-06-03T19:54:49.142Z,7.40
2018-06-03T19:57:16.653Z,6.70
2018-06-03T19:59:44.171Z,8.57
2018-06-03T20:02:11.920Z,147.70
2018-06-03T20:04:39.446Z,17.53
2018-06-03T20:07:07.367Z,10.13
2018-06-03T20:09:34.912Z,9.27
2018-06-03T20:12:02.419Z,13.73
2018-06-03T20:14:30.092Z,15.73
2018-06-03T20:16:57.695Z,11.07
2018-06-03T20:19:25.432Z,9.27
2018-06-03T20:21:52.987Z,9.17
2018-06-03T20:24:20.516Z,7.90
2018-06-03T20:26:48.374Z,7.70
2018-06-03T20:29:15.869Z,9.47
2018-06-03T20:31:43.550Z,8.83
2018-06-03T20:34:11.089Z,7.93
2018-06-03T20:36:38.627Z,8.00
2018-06-03T20:39:07.104Z,7.53
2018-06-03T20:41:34.615Z,8.53
2018-06-03T20:44:02.415Z,8.80
2018-06-03T20:46:30.143Z,8.73
2018-06-03T20:48:57.649Z,8.10
2018-06-03T20:51:25.186Z,11.53
2018-06-03T20:53:52.762Z,9.60
2018-06-03T20:56:20.430Z,8.70
2018-06-03T20:58:47.968Z,7.80
2018-06-03T21:01:15.598Z,8.03
2018-06-03T21:03:43.339Z,8.43
2018-06-03T21:06:10.835Z,11.23
2018-06-03T21:08:38.591Z,8.73
2018-06-03T21:11:06.114Z,9.27
2018-06-03T21:13:33.662Z,8.40
2018-06-03T21:16:01.470Z,8.93
2018-06-03T21:18:28.976Z,8.23
2018-06-03T21:20:56.645Z,8.23
2018-06-03T21:23:24.190Z,9.70
2018-06-03T21:25:51.751Z,11.63
2018-06-03T21:28:19.434Z,9.83
2018-06-03T21:30:46.977Z,8.73
2018-06-03T21:33:14.650Z,8.80
2018-06-03T21:35:42.131Z,10.37
2018-06-03T21:38:09.714Z,9.00
2018-06-03T21:40:37.396Z,8.50
2018-06-03T21:43:04.963Z,8.30
2018-06-03T21:45:32.622Z,8.63
2018-06-03T21:48:00.131Z,8.60
2018-06-03T21:50:27.644Z,8.93
2018-06-03T21:52:55.215Z,8.47
2018-06-03T21:55:22.738Z,8.33
2018-06-03T21:57:50.267Z,8.73
2018-06-03T22:00:17.798Z,8.80
2018-06-03T22:02:45.306Z,10.67
2018-06-03T22:05:12.835Z,9.30
2018-06-03T22:07:40.382Z,9.33
2018-06-03T22:10:07.887Z,10.20
2018-06-03T22:12:35.413Z,9.13
2018-06-03T22:15:03.030Z,9.40
2018-06-03T22:17:30.554Z,10.87
2018-06-03T22:19:58.070Z,11.43
2018-06-03T22:22:25.602Z,10.83
2018-06-03T22:24:53.127Z,12.93
2018-06-03T22:27:20.639Z,10.13
2018-06-03T22:29:48.175Z,8.93
2018-06-03T22:32:15.675Z,7.80
2018-06-03T22:34:43.203Z,8.63
2018-06-03T22:37:10.735Z,10.43
2018-06-03T22:39:38.286Z,9.50
2018-06-03T22:42:05.791Z,8.27
2018-06-03T22:44:33.338Z,9.13
2018-06-03T22:47:00.840Z,9.37
2018-06-03T22:49:28.341Z,10.47
2018-06-03T22:51:55.900Z,11.27
2018-06-03T22:54:23.405Z,8.47
2018-06-03T22:57:01.863Z,9.27
2018-06-03T22:59:29.370Z,9.80
2018-06-03T23:01:56.923Z,8.97
2018-06-03T23:04:24.450Z,8.97
2018-06-03T23:06:51.971Z,8.97
2018-06-03T23:09:19.487Z,9.03
2018-06-03T23:11:47.047Z,10.30
2018-06-03T23:14:14.563Z,8.97
2018-06-03T23:16:42.079Z,9.03
2018-06-03T23:19:09.603Z,9.43
2018-06-03T23:21:37.134Z,9.23
2018-06-03T23:24:04.672Z,8.73
2018-06-03T23:26:32.196Z,9.47
2018-06-03T23:28:59.714Z,9.83
2018-06-03T23:31:27.226Z,9.17
2018-06-03T23:33:54.782Z,10.33
2018-06-03T23:36:22.283Z,9.37
2018-06-03T23:38:49.814Z,8.70
2018-06-03T23:41:17.333Z,9.63
2018-06-03T23:43:44.847Z,9.33
2018-06-03T23:46:12.418Z,11.60
2018-06-03T23:48:39.943Z,9.17
2018-06-03T23:51:07.443Z,9.43
2018-06-03T23:53:34.943Z,11.60
2018-06-03T23:56:02.506Z,9.10
2018-06-03T23:58:30.058Z,8.63
